Time;durP1;ratioP1;P1;durP2;ratioP2;P2;SDS_P1;SDS_P2;PMS_P1;PMS_P2;Temp;Humidity;BMP_temperature;BMP_pressure;BME280_temperature;BME280_humidity;BME280_pressure;Samples;Min_cycle;Max_cycle;Signal;HPM_P1;HPM_P2
2021/12/11 00:01:10;;;;;;;6.97;2.60;;;;;;;10.14;86.11;100145.23;1644690;86;25824;-61
2021/12/11 00:03:42;;;;;;;8.90;2.95;;;;;;;10.13;85.97;100146.73;1655491;84;25823;-60
2021/12/11 00:06:17;;;;;;;7.12;3.00;;;;;;;10.15;85.85;100144.76;1644614;86;25739;-60
2021/12/11 00:08:48;;;;;;;5.95;3.20;;;;;;;10.15;85.81;100152.82;1643167;85;25744;-60
2021/12/11 00:11:26;;;;;;;15.13;3.37;;;;;;;10.15;85.95;100147.44;1644521;86;27534;-61
2021/12/11 00:14:00;;;;;;;10.63;3.22;;;;;;;10.12;85.59;100153.97;1654377;85;25738;-61
2021/12/11 00:16:31;;;;;;;12.88;3.35;;;;;;;10.13;85.89;100156.98;1669589;84;25816;-60
2021/12/11 00:19:04;;;;;;;7.70;2.52;;;;;;;10.16;85.73;100153.17;1670691;83;25773;-60
2021/12/11 00:21:32;;;;;;;8.98;3.02;;;;;;;10.19;85.65;100156.88;1676011;83;25745;-60
2021/12/11 00:24:04;;;;;;;8.95;3.30;;;;;;;10.19;85.60;100155.54;1680610;83;27517;-60
2021/12/11 00:26:40;;;;;;;6.80;3.20;;;;;;;10.18;85.60;100156.05;1672099;83;25672;-61
2021/12/11 00:29:09;;;;;;;7.05;3.30;;;;;;;10.21;85.64;100154.07;1671302;83;25805;-60
2021/12/11 00:31:40;;;;;;;7.12;2.92;;;;;;;10.18;85.34;100151.16;1679598;83;26396;-60
2021/12/11 00:34:14;;;;;;;10.85;4.62;;;;;;;10.14;85.23;100157.33;1672595;83;25780;-61
2021/12/11 00:36:53;;;;;;;8.78;2.50;;;;;;;10.15;85.35;100159.54;1671336;83;27491;-60
2021/12/11 00:39:21;;;;;;;9.00;3.08;;;;;;;10.15;85.51;100157.68;1640626;85;27252;-60
2021/12/11 00:41:53;;;;;;;7.75;3.08;;;;;;;10.16;85.38;100153.17;1626244;84;25826;-60
2021/12/11 00:44:17;;;;;;;8.10;2.83;;;;;;;10.17;85.32;100152.18;1646905;85;26509;-60
2021/12/11 00:46:44;;;;;;;8.98;3.17;;;;;;;10.17;85.18;100157.05;1686872;84;25711;-60
2021/12/11 00:49:16;;;;;;;7.75;2.83;;;;;;;10.14;85.16;100161.36;1675273;84;27480;-60
2021/12/11 00:51:54;;;;;;;6.75;3.33;;;;;;;10.17;85.29;100162.42;1674554;84;25761;-60
2021/12/11 00:54:22;;;;;;;11.05;4.08;;;;;;;10.17;85.21;100158.90;1654581;84;25806;-60
2021/12/11 00:56:51;;;;;;;7.72;2.77;;;;;;;10.15;85.11;100157.68;1661145;84;25780;-60
2021/12/11 00:59:21;;;;;;;8.53;3.65;;;;;;;10.18;85.22;100168.63;1679765;84;25721;-66
2021/12/11 01:01:56;;;;;;;12.45;3.75;;;;;;;10.18;85.16;100161.91;1645236;86;27462;-60
2021/12/11 01:04:28;;;;;;;7.72;3.47;;;;;;;10.18;85.09;100167.28;1666017;84;26194;-60
2021/12/11 01:07:03;;;;;;;3.52;1.22;;;;;;;10.19;85.24;100158.23;1628182;85;25837;-60
2021/12/11 01:09:47;;;;;;;2.35;1.10;;;;;;;10.22;84.80;100161.14;1665763;85;25818;-60
2021/12/11 01:12:21;;;;;;;4.12;1.00;;;;;;;10.24;84.55;100168.53;1650577;84;25706;-60
2021/12/11 01:15:05;;;;;;;4.17;1.40;;;;;;;10.24;84.44;100164.50;1643176;86;28179;-61
2021/12/11 01:17:46;;;;;;;7.85;1.52;;;;;;;10.27;84.23;100165.56;1646502;85;26974;-60
2021/12/11 01:20:22;;;;;;;4.37;1.17;;;;;;;10.27;84.13;100158.84;1650953;85;25825;-60
2021/12/11 01:22:51;;;;;;;3.77;1.42;;;;;;;10.28;84.10;100161.88;1651182;86;25801;-60
2021/12/11 01:25:23;;;;;;;3.30;1.40;;;;;;;10.27;84.10;100161.53;1648486;84;25764;-60
2021/12/11 01:27:55;;;;;;;6.53;1.60;;;;;;;10.28;83.97;100164.56;1650641;84;27456;-60
2021/12/11 01:30:33;;;;;;;4.97;1.47;;;;;;;10.27;83.98;100169.08;1660005;85;25764;-60
2021/12/11 01:33:03;;;;;;;4.67;1.90;;;;;;;10.28;84.04;100166.74;1643627;84;26093;-60
2021/12/11 01:35:31;;;;;;;4.17;1.32;;;;;;;10.29;84.05;100170.30;1671791;85;26399;-60
2021/12/11 01:38:15;;;;;;;9.28;2.42;;;;;;;10.28;84.04;100168.09;1634648;87;25774;-60
2021/12/11 01:40:46;;;;;;;4.15;1.67;;;;;;;10.27;84.10;100165.05;1634976;87;27508;-60
2021/12/11 01:43:14;;;;;;;8.33;1.35;;;;;;;10.28;84.06;100166.74;1609496;88;25782;-60
2021/12/11 01:45:47;;;;;;;4.35;1.40;;;;;;;10.30;84.11;100175.52;1606531;88;25899;-60
2021/12/11 01:48:25;;;;;;;1.00;1.00;;;;;;;10.32;84.14;100192.34;1649365;85;25850;-60
2021/12/11 01:51:14;;;;;;;1.22;1.10;;;;;;;10.00;80.01;100198.97;1666290;84;25794;-61
2021/12/11 01:53:46;;;;;;;1.12;1.05;;;;;;;9.61;80.08;100205.80;1647120;85;28796;-59
2021/12/11 01:56:18;;;;;;;1.50;1.30;;;;;;;9.35;80.42;100206.40;1656330;85;25903;-60
2021/12/11 01:58:55;;;;;;;1.30;1.20;;;;;;;9.09;80.56;100208.78;1668854;85;25708;-60
2021/12/11 02:01:28;;;;;;;1.35;1.12;;;;;;;8.94;81.10;100213.71;1657812;84;26417;-59
2021/12/11 02:03:58;;;;;;;1.95;1.42;;;;;;;8.74;81.55;100224.91;1647517;85;25832;-60
2021/12/11 02:06:31;;;;;;;1.30;1.20;;;;;;;8.65;81.97;100229.25;1640681;87;27464;-60
2021/12/11 02:08:59;;;;;;;1.10;0.93;;;;;;;8.52;82.11;100227.31;1639472;85;25856;-60
2021/12/11 02:11:30;;;;;;;1.25;1.10;;;;;;;8.27;82.54;100226.27;1611416;85;25883;-60
2021/12/11 02:14:03;;;;;;;1.15;1.05;;;;;;;8.17;83.19;100241.96;1647391;84;25487;-59
2021/12/11 02:16:45;;;;;;;2.27;1.37;;;;;;;8.03;83.66;100254.70;1649208;85;25767;-60
2021/12/11 02:19:22;;;;;;;2.05;1.10;;;;;;;7.86;84.49;100260.20;1661597;84;27444;-60
2021/12/11 02:21:57;;;;;;;2.65;0.98;;;;;;;7.80;84.03;100263.38;1655526;85;25772;-60
2021/12/11 02:24:44;;;;;;;0.70;0.70;;;;;;;7.84;84.34;100252.27;1634611;85;25879;-60
2021/12/11 02:27:19;;;;;;;3.70;1.10;;;;;;;7.86;84.43;100253.50;1627285;87;25911;-60
2021/12/11 02:30:16;;;;;;;2.72;1.30;;;;;;;7.80;85.37;100256.68;1632773;87;27269;-61
2021/12/11 02:32:46;;;;;;;1.42;1.32;;;;;;;7.63;85.16;100260.30;1613833;87;28221;-61
2021/12/11 02:35:21;;;;;;;1.20;1.10;;;;;;;7.47;85.65;100255.42;1638298;84;25783;-60
2021/12/11 02:37:54;;;;;;;4.40;1.12;;;;;;;7.42;85.93;100246.08;1662799;84;25801;-60
2021/12/11 02:40:32;;;;;;;3.27;1.95;;;;;;;7.34;86.06;100258.27;1637965;85;25747;-60
2021/12/11 02:43:10;;;;;;;1.85;1.62;;;;;;;7.32;86.08;100272.73;1635196;86;25928;-60
2021/12/11 02:46:14;;;;;;;3.22;1.20;;;;;;;7.30;86.29;100276.05;1609577;86;27547;-60
2021/12/11 02:48:55;;;;;;;2.02;1.60;;;;;;;7.37;86.23;100285.26;1657021;86;26023;-60
2021/12/11 02:51:42;;;;;;;5.30;1.72;;;;;;;7.49;86.52;100294.09;1660670;86;25788;-60
2021/12/11 02:54:23;;;;;;;2.20;1.87;;;;;;;7.60;87.22;100297.20;1653734;86;25881;-61
2021/12/11 02:56:55;;;;;;;3.92;1.52;;;;;;;7.78;87.61;100302.84;1634193;86;26033;-60
2021/12/11 02:59:28;;;;;;;7.80;1.95;;;;;;;7.83;87.24;100293.92;1650276;84;27508;-61
2021/12/11 03:02:02;;;;;;;3.42;1.70;;;;;;;7.87;86.90;100297.19;1661274;84;25849;-60
2021/12/11 03:04:43;;;;;;;3.27;2.67;;;;;;;7.92;86.84;100293.64;1644818;86;25774;-60
2021/12/11 03:07:07;;;;;;;4.10;3.00;;;;;;;7.92;86.24;100302.52;1641815;85;26457;-60
2021/12/11 03:09:39;;;;;;;9.05;4.67;;;;;;;7.90;85.91;100306.31;1627346;87;25917;-60
2021/12/11 03:12:11;;;;;;;9.55;5.03;;;;;;;7.82;85.21;100306.47;1641089;86;27557;-60
2021/12/11 03:14:38;;;;;;;8.83;6.15;;;;;;;7.81;85.42;100311.47;1642742;86;25833;-60
2021/12/11 03:17:07;;;;;;;9.50;5.75;;;;;;;7.83;85.55;100315.34;1647862;85;25547;-60
2021/12/11 03:19:39;;;;;;;9.28;7.10;;;;;;;7.85;85.24;100321.42;1648457;85;25726;-60
2021/12/11 03:22:10;;;;;;;11.55;7.15;;;;;;;7.82;84.68;100331.05;1652862;85;25694;-60
2021/12/11 03:24:38;;;;;;;10.13;7.10;;;;;;;7.80;84.89;100326.30;1663453;85;27473;-59
2021/12/11 03:27:05;;;;;;;11.12;7.60;;;;;;;7.79;84.59;100318.77;1667354;84;25806;-60
2021/12/11 03:29:33;;;;;;;12.05;7.65;;;;;;;7.65;83.00;100325.79;1661404;84;25974;-59
2021/12/11 03:32:03;;;;;;;11.28;8.25;;;;;;;7.56;83.16;100336.76;1661987;84;25801;-60
2021/12/11 03:34:30;;;;;;;13.22;8.73;;;;;;;7.55;83.99;100330.20;1646719;85;25959;-60
2021/12/11 03:36:59;;;;;;;16.00;9.50;;;;;;;7.57;84.21;100341.14;1651084;85;27469;-60
2021/12/11 03:39:34;;;;;;;16.80;10.18;;;;;;;7.61;84.49;100351.09;1650227;85;25810;-60
2021/12/11 03:42:08;;;;;;;12.98;9.25;;;;;;;7.63;84.38;100354.51;1648522;86;25847;-60
2021/12/11 03:44:36;;;;;;;21.65;10.78;;;;;;;7.65;84.21;100361.93;1646236;85;26765;-60
2021/12/11 03:47:11;;;;;;;17.98;11.15;;;;;;;7.59;82.96;100369.98;1661726;85;25863;-59
2021/12/11 03:49:38;;;;;;;15.08;11.48;;;;;;;7.48;82.38;100360.16;1633921;85;27567;-60
2021/12/11 03:52:09;;;;;;;16.48;10.95;;;;;;;7.40;82.31;100358.58;1652817;85;25920;-59
2021/12/11 03:54:41;;;;;;;13.40;10.38;;;;;;;7.29;81.71;100356.79;1664221;85;25876;-60
2021/12/11 03:57:13;;;;;;;13.28;10.32;;;;;;;7.11;80.85;100360.95;1665630;84;25786;-60
2021/12/11 03:59:40;;;;;;;16.15;11.18;;;;;;;6.94;80.88;100359.16;1656368;84;26057;-60
2021/12/11 04:02:11;;;;;;;19.42;11.97;;;;;;;6.89;81.81;100366.70;1658503;86;27489;-59
2021/12/11 04:04:51;;;;;;;17.62;12.95;;;;;;;6.90;82.44;100368.41;1674760;84;53903;-60
2021/12/11 04:07:23;;;;;;;20.32;13.68;;;;;;;6.89;82.23;100374.73;1678525;83;25757;-59
2021/12/11 04:09:51;;;;;;;20.23;13.48;;;;;;;6.88;82.21;100376.54;1675648;83;25777;-60
2021/12/11 04:12:20;;;;;;;22.30;14.05;;;;;;;6.92;82.62;100374.47;1666471;84;25836;-60
2021/12/11 04:14:50;;;;;;;23.60;13.53;;;;;;;6.95;82.56;100375.57;1643080;85;27589;-60
2021/12/11 04:17:22;;;;;;;23.12;13.48;;;;;;;6.90;82.07;100368.41;1649344;85;25979;-60
2021/12/11 04:19:54;;;;;;;17.75;12.65;;;;;;;6.87;82.28;100376.17;1641743;86;25869;-59
2021/12/11 04:22:21;;;;;;;19.37;13.88;;;;;;;6.87;82.48;100376.67;1629366;87;25873;-59
2021/12/11 04:24:49;;;;;;;22.27;15.55;;;;;;;6.83;82.13;100384.09;1662377;85;25793;-60
2021/12/11 04:27:20;;;;;;;22.27;14.33;;;;;;;6.71;81.52;100391.26;1659386;85;27544;-60
2021/12/11 04:29:50;;;;;;;25.08;16.17;;;;;;;6.59;81.25;100400.22;1685827;84;25888;-60
2021/12/11 04:32:21;;;;;;;23.75;16.25;;;;;;;6.49;81.34;100405.45;1649662;84;25797;-60
2021/12/11 04:34:49;;;;;;;26.52;16.37;;;;;;;6.52;82.02;100410.53;1651415;85;26601;-60
2021/12/11 04:37:22;;;;;;;24.02;15.75;;;;;;;6.56;82.04;100405.80;1660721;85;25832;-60
2021/12/11 04:40:00;;;;;;;23.18;16.05;;;;;;;6.49;81.35;100410.79;1649420;86;27491;-60
2021/12/11 04:42:40;;;;;;;21.93;14.10;;;;;;;6.38;81.39;100413.43;1627506;86;25844;-60
2021/12/11 04:44:55;;;;;;;22.90;14.65;;;;;;;6.27;81.49;100412.92;1615168;86;31226;-60
2021/12/11 04:47:40;;;;;;;33.67;17.07;;;;;;;6.17;81.63;100416.77;1630701;86;25872;-59
2021/12/11 04:50:15;;;;;;;24.90;16.40;;;;;;;6.07;81.65;100419.76;1643032;86;25883;-59
2021/12/11 04:52:54;;;;;;;29.50;16.67;;;;;;;6.01;81.91;100415.73;1638848;86;27549;-60
2021/12/11 05:00:36;;;;;;;30.65;18.98;;;;;;;6.09;82.57;100423.17;1640829;86;25873;-60
2021/12/11 05:03:27;;;;;;;29.82;17.95;;;;;;;6.06;82.22;100425.59;1660682;84;25737;-60
2021/12/11 05:11:05;;;;;;;28.55;19.12;;;;;;;6.02;81.82;100428.61;1660073;84;25752;-60
2021/12/11 05:13:32;;;;;;;26.52;17.12;;;;;;;6.02;82.12;100427.28;1648197;85;25782;-60
2021/12/11 05:16:04;;;;;;;29.30;17.10;;;;;;;6.11;82.61;100428.76;1666696;84;25977;-59
2021/12/11 05:18:35;;;;;;;30.88;19.02;;;;;;;6.21;82.49;100436.08;1668829;85;27542;-60
2021/12/11 05:21:10;;;;;;;41.15;18.42;;;;;;;6.28;82.46;100441.81;1667470;84;25961;-60
2021/12/11 05:23:37;;;;;;;28.42;17.32;;;;;;;6.38;82.81;100450.34;1671787;84;25789;-60
2021/12/11 05:26:05;;;;;;;34.00;20.05;;;;;;;6.48;82.22;100456.31;1690175;84;25772;-59
2021/12/11 05:28:33;;;;;;;33.13;20.23;;;;;;;6.42;81.41;100446.48;1687591;84;25842;-60
2021/12/11 05:31:04;;;;;;;31.15;18.75;;;;;;;6.32;79.79;100448.64;1688424;84;28176;-61
2021/12/11 05:33:31;;;;;;;32.10;19.95;;;;;;;6.19;79.58;100460.25;1632822;86;25876;-61
2021/12/11 05:35:59;;;;;;;36.63;21.52;;;;;;;6.13;79.83;100463.85;1619008;86;25784;-61
2021/12/11 05:38:26;;;;;;;33.50;21.80;;;;;;;6.04;80.04;100459.57;1627612;85;25815;-61
2021/12/11 05:40:58;;;;;;;40.48;22.75;;;;;;;6.05;79.87;100463.11;1680783;84;25978;-60
2021/12/11 05:43:26;;;;;;;35.58;21.52;;;;;;;6.02;80.06;100467.33;1670347;84;27470;-60
2021/12/11 05:45:54;;;;;;;41.45;22.85;;;;;;;5.89;79.52;100472.20;1667669;84;25809;-60
2021/12/11 05:48:21;;;;;;;38.23;23.20;;;;;;;5.71;79.46;100478.89;1678916;83;25886;-60
2021/12/11 05:50:53;;;;;;;35.58;22.37;;;;;;;5.54;79.78;100488.98;1674319;83;25794;-60
2021/12/11 05:53:22;;;;;;;39.18;22.52;;;;;;;5.36;80.02;100494.30;1661399;84;25769;-60
2021/12/11 05:55:54;;;;;;;41.85;23.07;;;;;;;5.17;80.44;100501.80;1659869;85;27500;-60
2021/12/11 05:58:46;;;;;;;39.90;23.18;;;;;;;5.15;80.72;100506.88;1657206;85;25879;-60
2021/12/11 06:01:06;;;;;;;39.33;22.22;;;;;;;5.14;81.12;100502.50;1656511;85;25791;-60
2021/12/11 06:03:37;;;;;;;39.83;22.25;;;;;;;5.08;81.11;100493.11;1651154;85;26026;-60
2021/12/11 06:06:02;;;;;;;36.20;20.75;;;;;;;4.99;81.57;100498.59;1623558;87;25949;-60
2021/12/11 06:08:31;;;;;;;42.15;23.70;;;;;;;4.93;81.91;100503.03;1618245;87;28198;-60
2021/12/11 06:10:59;;;;;;;39.27;22.80;;;;;;;4.90;81.88;100503.23;1616573;87;26065;-59
2021/12/11 06:13:28;;;;;;;39.55;22.05;;;;;;;4.95;81.97;100498.91;1616173;86;26291;-60
2021/12/11 06:15:55;;;;;;;40.05;22.05;;;;;;;4.99;82.04;100497.27;1625325;86;25847;-59
2021/12/11 06:18:22;;;;;;;37.15;22.65;;;;;;;5.08;82.28;100493.58;1651996;85;25878;-59
2021/12/11 06:20:49;;;;;;;37.05;22.90;;;;;;;5.13;81.91;100498.97;1663013;83;27532;-59
2021/12/11 06:23:18;;;;;;;38.63;20.92;;;;;;;5.18;81.98;100503.97;1631998;87;25705;-60
2021/12/11 06:25:46;;;;;;;37.55;22.02;;;;;;;5.23;81.83;100511.19;1621682;87;25858;-59
2021/12/11 06:28:13;;;;;;;39.80;22.25;;;;;;;5.24;81.53;100521.36;1627525;87;25847;-60
2021/12/11 06:30:40;;;;;;;43.92;25.88;;;;;;;5.28;81.75;100529.53;1632496;87;26121;-60
2021/12/11 06:33:07;;;;;;;36.17;21.50;;;;;;;5.35;81.66;100534.80;1639901;87;27555;-59
2021/12/11 06:35:45;;;;;;;38.40;22.30;;;;;;;5.40;81.46;100546.48;1642366;86;25916;-59
2021/12/11 06:38:17;;;;;;;36.88;22.55;;;;;;;5.49;81.61;100557.84;1644558;85;25694;-59
2021/12/11 06:40:45;;;;;;;39.80;20.82;;;;;;;5.57;81.18;100560.81;1663147;84;25812;-60
2021/12/11 06:43:13;;;;;;;37.40;21.20;;;;;;;5.61;81.03;100570.30;1681822;83;25973;-59
2021/12/11 06:45:40;;;;;;;34.25;20.43;;;;;;;5.66;80.89;100579.31;1685387;83;27428;-59
2021/12/11 06:48:08;;;;;;;32.83;19.77;;;;;;;5.75;81.21;100580.48;1681329;83;25884;-59
2021/12/11 06:50:35;;;;;;;39.08;22.40;;;;;;;5.89;81.57;100588.34;1639300;86;25783;-60
2021/12/11 06:53:07;;;;;;;34.45;21.73;;;;;;;6.03;81.19;100583.87;1655759;84;25812;-59
2021/12/11 06:55:34;;;;;;;37.13;22.82;;;;;;;6.20;81.40;100586.63;1677216;83;25997;-59
2021/12/11 06:58:02;;;;;;;38.35;21.27;;;;;;;6.25;80.31;100583.98;1680754;83;26794;-59
2021/12/11 07:00:29;;;;;;;42.53;22.87;;;;;;;6.22;79.38;100592.25;1679902;83;25736;-60
2021/12/11 07:02:56;;;;;;;38.40;24.18;;;;;;;6.14;78.98;100610.63;1682890;83;25889;-59
2021/12/11 07:05:24;;;;;;;40.85;23.87;;;;;;;6.08;78.92;100607.95;1648432;85;26455;-60
2021/12/11 07:07:51;;;;;;;38.08;22.98;;;;;;;6.09;79.24;100620.34;1620835;87;25877;-60
2021/12/11 07:10:20;;;;;;;40.35;24.72;;;;;;;6.16;79.05;100627.89;1666140;85;27583;-60
2021/12/11 07:12:49;;;;;;;44.33;24.50;;;;;;;6.22;79.05;100627.44;1664322;85;25903;-59
2021/12/11 07:15:18;;;;;;;43.23;25.02;;;;;;;6.18;78.30;100623.30;1629052;87;25560;-59
2021/12/11 07:17:45;;;;;;;45.08;25.57;;;;;;;6.02;78.01;100616.87;1632701;87;26077;-60
2021/12/11 07:20:15;;;;;;;40.80;24.05;;;;;;;5.91;78.16;100617.13;1661766;85;25966;-59
2021/12/11 07:22:44;;;;;;;40.28;24.25;;;;;;;5.84;78.26;100641.69;1674070;84;27390;-60
2021/12/11 07:25:35;;;;;;;41.60;25.80;;;;;;;5.84;78.70;100643.02;1681763;84;25828;-60
2021/12/11 07:28:04;;;;;;;40.25;23.83;;;;;;;5.88;78.92;100640.52;1645561;85;25921;-59
2021/12/11 07:30:35;;;;;;;41.63;24.25;;;;;;;5.84;78.60;100627.00;1627003;85;26487;-60
2021/12/11 07:33:07;;;;;;;39.60;24.20;;;;;;;5.73;78.44;100617.09;1634736;87;25823;-59
2021/12/11 07:35:38;;;;;;;42.25;23.12;;;;;;;5.71;78.88;100623.89;1641578;85;27537;-59
2021/12/11 07:38:05;;;;;;;36.75;22.30;;;;;;;5.85;79.57;100636.27;1640834;87;25809;-59
2021/12/11 07:40:40;;;;;;;43.25;23.57;;;;;;;6.01;79.66;100634.69;1628589;87;25897;-59
2021/12/11 07:43:08;;;;;;;40.35;22.95;;;;;;;6.19;79.82;100623.65;1625250;86;25624;-59
2021/12/11 07:45:35;;;;;;;37.28;22.10;;;;;;;6.34;79.51;100629.70;1630934;86;26073;-58
2021/12/11 07:48:05;;;;;;;36.23;20.60;;;;;;;6.42;79.11;100628.64;1621434;87;27493;-59
2021/12/11 07:50:33;;;;;;;43.28;23.32;;;;;;;6.50;79.06;100632.94;1625075;85;25755;-58
2021/12/11 07:53:00;;;;;;;40.58;21.55;;;;;;;6.60;79.11;100637.61;1636056;87;26024;-58
2021/12/11 07:55:27;;;;;;;36.68;21.85;;;;;;;6.70;78.83;100649.33;1628631;87;25933;-59
2021/12/11 07:57:54;;;;;;;33.95;20.50;;;;;;;6.69;77.60;100671.67;1633200;87;25523;-59
2021/12/11 08:00:25;;;;;;;32.35;21.05;;;;;;;6.62;76.11;100676.64;1633520;86;27495;-63
2021/12/11 08:02:53;;;;;;;35.43;20.12;;;;;;;6.52;76.43;100689.81;1627688;85;25960;-59
2021/12/11 08:05:22;;;;;;;34.48;22.42;;;;;;;6.49;76.11;100703.88;1628885;86;25798;-59
2021/12/11 08:07:48;;;;;;;40.43;21.05;;;;;;;6.39;75.85;100718.41;1631380;87;26213;-59
2021/12/11 08:10:20;;;;;;;40.15;22.62;;;;;;;6.38;76.34;100732.73;1625598;87;25926;-59
2021/12/11 08:12:47;;;;;;;40.98;25.02;;;;;;;6.37;76.37;100751.89;1630265;87;27237;-60
2021/12/11 08:15:17;;;;;;;35.90;22.58;;;;;;;6.28;76.28;100752.55;1634470;85;25689;-59
2021/12/11 08:17:51;;;;;;;44.13;24.35;;;;;;;6.34;76.29;100764.62;1625985;87;25939;-60
2021/12/11 08:20:14;;;;;;;43.00;25.15;;;;;;;6.38;76.29;100777.66;1624292;87;25788;-60
2021/12/11 08:22:41;;;;;;;40.45;23.18;;;;;;;6.39;75.82;100785.20;1629354;87;26017;-60
2021/12/11 08:25:09;;;;;;;38.63;22.58;;;;;;;6.38;76.03;100782.16;1625952;86;27491;-60
2021/12/11 08:27:38;;;;;;;38.05;21.77;;;;;;;6.37;76.38;100793.31;1624603;87;25757;-59
2021/12/11 08:30:08;;;;;;;39.03;21.87;;;;;;;6.34;76.19;100790.00;1662313;85;25880;-59
2021/12/11 08:32:35;;;;;;;39.80;22.37;;;;;;;6.33;76.43;100797.18;1630156;87;25947;-59
2021/12/11 08:35:07;;;;;;;31.17;21.50;;;;;;;6.36;76.43;100810.80;1663488;85;25927;-60
2021/12/11 08:37:35;;;;;;;39.40;21.75;;;;;;;6.39;76.56;100823.95;1659309;85;28138;-59
2021/12/11 08:40:04;;;;;;;41.65;24.98;;;;;;;6.50;76.91;100832.05;1634711;86;26012;-60
2021/12/11 08:42:32;;;;;;;37.17;22.60;;;;;;;6.63;76.77;100825.38;1628439;87;25818;-60
2021/12/11 08:45:06;;;;;;;42.23;23.25;;;;;;;6.75;76.46;100831.66;1632166;86;26455;-60
2021/12/11 08:47:28;;;;;;;38.15;23.10;;;;;;;6.80;76.66;100835.34;1631651;86;25837;-60
2021/12/11 08:49:56;;;;;;;35.48;21.73;;;;;;;6.92;76.98;100839.79;1631377;87;27550;-60
2021/12/11 08:52:33;;;;;;;35.85;20.82;;;;;;;6.92;76.17;100851.83;1633170;86;25699;-60
2021/12/11 08:55:04;;;;;;;30.72;19.82;;;;;;;6.91;75.91;100846.09;1630435;84;25915;-59
2021/12/11 08:57:36;;;;;;;32.45;21.00;;;;;;;6.99;76.52;100844.22;1631267;86;26421;-60
2021/12/11 09:00:20;;;;;;;33.53;21.17;;;;;;;7.28;76.10;100835.39;1665136;85;25790;-60
2021/12/11 09:02:58;;;;;;;42.80;23.18;;;;;;;7.36;74.80;100836.17;1663555;84;27468;-60
2021/12/11 09:05:49;;;;;;;35.55;21.15;;;;;;;7.49;74.86;100825.41;1672569;84;25853;-61
2021/12/11 09:08:26;;;;;;;31.07;19.05;;;;;;;7.62;74.93;100823.50;1662637;84;25811;-61
2021/12/11 09:11:17;;;;;;;30.35;19.37;;;;;;;7.72;74.59;100817.45;1675923;83;25820;-61
2021/12/11 09:13:53;;;;;;;33.15;21.15;;;;;;;7.92;75.03;100820.80;1669881;83;25782;-61
2021/12/11 09:16:31;;;;;;;38.55;22.85;;;;;;;8.39;74.92;100814.55;1651380;85;27742;-61
2021/12/11 09:19:24;;;;;;;37.63;22.45;;;;;;;8.50;74.07;100805.68;1671146;85;25760;-61
2021/12/11 09:22:09;;;;;;;40.07;23.87;;;;;;;8.53;73.08;100801.42;1619989;87;25796;-61
2021/12/11 09:24:54;;;;;;;39.13;23.00;;;;;;;8.65;73.58;100797.75;1647804;84;25799;-61
2021/12/11 09:27:30;;;;;;;35.40;22.05;;;;;;;8.83;72.50;100801.30;1640145;86;25814;-61
2021/12/11 09:30:04;;;;;;;34.03;22.42;;;;;;;9.02;72.50;100798.79;1637703;85;27527;-59
2021/12/11 09:32:43;;;;;;;35.70;22.15;;;;;;;9.05;72.41;100794.52;1645645;85;26099;-59
2021/12/11 09:35:15;;;;;;;34.23;22.87;;;;;;;9.19;72.47;100795.20;1648456;85;25832;-59
2021/12/11 09:37:45;;;;;;;37.13;22.73;;;;;;;9.39;71.71;100798.95;1669392;84;26459;-59
2021/12/11 09:40:38;;;;;;;39.00;23.73;;;;;;;9.59;71.17;100798.61;1672085;84;25678;-60
2021/12/11 09:43:05;;;;;;;37.78;25.30;;;;;;;9.93;71.81;100801.61;1665380;85;27535;-60
2021/12/11 09:45:38;;;;;;;34.35;22.55;;;;;;;10.47;71.60;100809.08;1666412;84;25855;-60
2021/12/11 09:48:10;;;;;;;37.70;21.45;;;;;;;10.94;71.03;100805.36;1660840;85;25689;-60
2021/12/11 09:50:50;;;;;;;30.68;20.45;;;;;;;11.48;70.15;100809.05;1656414;85;25817;-60
2021/12/11 09:53:18;;;;;;;31.80;20.55;;;;;;;11.84;68.61;100808.45;1613287;86;25807;-60
2021/12/11 09:55:47;;;;;;;29.92;20.68;;;;;;;11.77;67.39;100820.80;1637717;85;27475;-60
2021/12/11 09:58:19;;;;;;;30.82;19.87;;;;;;;11.81;66.17;100817.69;1638684;85;25913;-60
2021/12/11 10:00:57;;;;;;;28.17;19.30;;;;;;;12.45;66.44;100809.91;1627107;86;26397;-59
2021/12/11 10:03:30;;;;;;;28.67;19.37;;;;;;;13.13;65.89;100804.66;1661376;85;26790;-59
2021/12/11 10:06:11;;;;;;;27.07;19.00;;;;;;;13.87;65.50;100796.92;1644860;86;25923;-60
2021/12/11 10:08:40;;;;;;;31.75;18.05;;;;;;;14.07;63.90;100793.53;1650965;85;28283;-60
2021/12/11 10:11:23;;;;;;;27.95;18.00;;;;;;;14.14;63.38;100804.55;1651000;84;25869;-60
2021/12/11 10:14:00;;;;;;;25.30;17.60;;;;;;;14.21;62.96;100798.35;1673251;84;26106;-60
2021/12/11 10:16:33;;;;;;;26.45;18.07;;;;;;;14.38;62.63;100807.43;1673810;84;25817;-59
2021/12/11 10:19:01;;;;;;;25.00;18.15;;;;;;;14.55;61.47;100808.87;1651316;85;25760;-61
2021/12/11 10:21:36;;;;;;;25.80;17.42;;;;;;;14.77;61.71;100807.48;1633339;86;28163;-61
2021/12/11 10:24:08;;;;;;;25.15;18.23;;;;;;;15.17;61.23;100806.42;1656036;86;25874;-61
2021/12/11 10:26:36;;;;;;;22.60;15.95;;;;;;;15.47;60.57;100806.79;1607054;89;25767;-61
2021/12/11 10:29:09;;;;;;;23.75;16.10;;;;;;;15.84;60.23;100804.66;1636853;85;25888;-60
2021/12/11 10:31:41;;;;;;;25.32;16.73;;;;;;;16.25;58.88;100799.16;1659884;84;26115;-60
2021/12/11 10:34:14;;;;;;;25.77;15.95;;;;;;;16.62;57.55;100803.66;1651214;83;27509;-61
2021/12/11 10:36:46;;;;;;;20.57;15.53;;;;;;;17.09;56.89;100798.70;1659469;84;25968;-61
2021/12/11 10:39:16;;;;;;;20.32;14.00;;;;;;;17.75;57.15;100794.70;1660011;85;25935;-61
2021/12/11 10:41:45;;;;;;;18.85;13.53;;;;;;;18.53;54.65;100799.88;1659370;84;26449;-60
2021/12/11 10:44:20;;;;;;;16.35;12.35;;;;;;;19.11;54.14;100801.38;1653172;85;25920;-61
2021/12/11 10:46:58;;;;;;;17.52;13.40;;;;;;;19.41;52.19;100793.66;1672239;84;28106;-61
2021/12/11 10:49:27;;;;;;;19.57;14.03;;;;;;;19.59;51.02;100800.84;1657384;84;25916;-61
2021/12/11 10:52:02;;;;;;;17.80;13.58;;;;;;;19.85;50.54;100805.73;1688401;84;25768;-61
2021/12/11 10:54:29;;;;;;;22.85;16.65;;;;;;;19.48;48.74;100811.76;1672980;85;26496;-61
2021/12/11 10:56:56;;;;;;;23.10;17.62;;;;;;;18.97;47.85;100808.56;1669745;84;25828;-61
2021/12/11 10:59:28;;;;;;;28.80;17.35;;;;;;;18.18;48.23;100811.84;1657362;84;27454;-61
2021/12/11 11:02:15;;;;;;;26.10;17.30;;;;;;;17.59;48.47;100808.73;1629767;86;25947;-60
2021/12/11 11:04:53;;;;;;;27.58;17.52;;;;;;;17.14;49.48;100809.03;1648174;85;25871;-60
2021/12/11 11:07:23;;;;;;;27.60;19.17;;;;;;;16.57;49.81;100815.88;1657958;84;25796;-60
2021/12/11 11:09:51;;;;;;;31.33;18.07;;;;;;;15.73;50.27;100813.95;1670250;85;25535;-61
2021/12/11 11:12:23;;;;;;;25.37;17.45;;;;;;;15.11;51.43;100810.63;1682614;84;27457;-61
2021/12/11 11:14:53;;;;;;;28.52;19.95;;;;;;;14.65;52.47;100806.02;1650528;86;25959;-61
2021/12/11 11:17:24;;;;;;;29.82;19.67;;;;;;;14.29;53.17;100811.09;1668302;84;25804;-61
2021/12/11 11:19:52;;;;;;;26.82;18.65;;;;;;;14.02;53.89;100815.65;1641983;85;25792;-61
2021/12/11 11:22:24;;;;;;;25.55;18.05;;;;;;;13.78;54.64;100819.84;1692262;84;25834;-61
2021/12/11 11:25:02;;;;;;;29.18;19.92;;;;;;;13.65;54.98;100819.89;1682693;84;27533;-61
2021/12/11 11:27:30;;;;;;;42.03;29.10;;;;;;;13.58;55.31;100819.68;1646672;85;25894;-61
2021/12/11 11:29:57;;;;;;;32.48;21.33;;;;;;;13.59;55.64;100822.70;1642183;85;25876;-61
2021/12/11 11:32:31;;;;;;;27.15;19.98;;;;;;;13.33;56.12;100832.06;1651191;85;25853;-61
2021/12/11 11:35:12;;;;;;;30.12;20.90;;;;;;;13.20;56.55;100838.67;1604152;87;25492;-61
2021/12/11 11:37:43;;;;;;;28.70;19.90;;;;;;;12.99;57.07;100834.41;1640943;85;29678;-61
2021/12/11 11:40:16;;;;;;;29.55;19.40;;;;;;;12.82;57.63;100834.69;1637442;85;25816;-61
2021/12/11 11:42:43;;;;;;;29.67;20.12;;;;;;;12.73;57.59;100835.59;1614057;86;25912;-61
2021/12/11 11:45:12;;;;;;;32.25;20.48;;;;;;;12.43;57.96;100842.92;1622935;86;25867;-61
2021/12/11 11:47:41;;;;;;;31.15;20.35;;;;;;;12.05;58.67;100840.69;1624929;85;25845;-61
2021/12/11 11:50:13;;;;;;;32.30;21.73;;;;;;;11.84;59.16;100840.31;1613691;87;27492;-61
2021/12/11 11:52:41;;;;;;;30.17;21.85;;;;;;;11.64;59.62;100838.61;1611954;87;26623;-60